createdAt,value
2022-08-26T00:00:06.869Z,25.55
2022-08-26T00:05:18.291Z,25.55
2022-08-26T00:10:25.999Z,25.55
2022-08-26T00:15:33.855Z,25.55
2022-08-26T00:20:41.361Z,25.54
2022-08-26T00:25:49.531Z,25.56
2022-08-26T00:30:56.110Z,25.55
2022-08-26T00:36:02.910Z,25.55
2022-08-26T00:41:09.830Z,25.55
2022-08-26T00:46:18.370Z,25.56
2022-08-26T00:51:29.697Z,25.53
2022-08-26T00:56:38.571Z,25.57
2022-08-26T01:01:45.990Z,25.56
2022-08-26T01:06:54.481Z,25.53
2022-08-26T01:12:02.820Z,25.53
2022-08-26T01:17:10.173Z,25.54
2022-08-26T01:22:19.182Z,25.54
2022-08-26T01:27:26.093Z,25.55
2022-08-26T01:32:40.359Z,25.54
2022-08-26T01:37:47.370Z,25.57
2022-08-26T01:42:54.190Z,25.54
2022-08-26T01:48:03.884Z,25.53
2022-08-26T01:53:12.823Z,25.52
2022-08-26T01:58:22.291Z,25.56
2022-08-26T02:03:30.138Z,25.55
2022-08-26T02:08:40.913Z,25.53
2022-08-26T02:13:48.530Z,25.52
2022-08-26T02:18:56.209Z,25.52
2022-08-26T02:24:10.550Z,25.53
2022-08-26T02:29:24.119Z,25.52
2022-08-26T02:34:32.586Z,25.53
2022-08-26T02:39:40.911Z,25.53
2022-08-26T02:44:47.504Z,25.51
2022-08-26T02:49:54.871Z,25.51
2022-08-26T02:55:01.731Z,25.50
2022-08-26T03:00:11.130Z,25.51
2022-08-26T03:05:18.375Z,25.51
2022-08-26T03:10:26.014Z,25.52
2022-08-26T03:15:32.913Z,25.51
2022-08-26T03:20:40.561Z,25.50
2022-08-26T03:25:50.319Z,25.50
2022-08-26T03:30:57.545Z,25.51
2022-08-26T03:36:07.054Z,25.49
2022-08-26T03:41:13.930Z,25.49
2022-08-26T03:46:21.075Z,25.51
2022-08-26T03:51:27.930Z,25.50
2022-08-26T03:56:35.569Z,25.50
2022-08-26T04:01:42.639Z,25.50
2022-08-26T04:06:49.393Z,25.50
2022-08-26T04:11:58.193Z,25.50
2022-08-26T04:17:05.390Z,25.50
2022-08-26T04:22:12.773Z,25.48
2022-08-26T04:27:19.519Z,25.50
2022-08-26T04:32:26.343Z,25.49
2022-08-26T04:37:33.390Z,25.49
2022-08-26T04:42:40.570Z,25.49
2022-08-26T04:47:47.213Z,25.50
2022-08-26T04:52:54.350Z,25.49
2022-08-26T04:58:00.973Z,25.49
2022-08-26T05:03:10.576Z,25.50
2022-08-26T05:08:17.919Z,25.51
2022-08-26T05:13:26.604Z,25.54
2022-08-26T05:18:34.510Z,25.57
2022-08-26T05:23:42.161Z,25.63
2022-08-26T05:28:48.990Z,25.63
2022-08-26T05:33:57.250Z,25.66
2022-08-26T05:39:04.830Z,25.72
2022-08-26T05:44:12.540Z,25.72
2022-08-26T05:49:20.783Z,25.76
2022-08-26T05:54:35.544Z,25.78
2022-08-26T05:59:42.500Z,25.80
2022-08-26T06:04:49.770Z,25.84
2022-08-26T06:10:15.332Z,25.87
2022-08-26T06:15:25.610Z,25.90
2022-08-26T06:20:34.334Z,25.96
2022-08-26T06:25:42.309Z,25.94
2022-08-26T06:30:50.236Z,26.01
2022-08-26T06:35:57.193Z,25.99
2022-08-26T06:41:06.010Z,26.03
2022-08-26T06:46:13.575Z,26.05
2022-08-26T06:51:22.401Z,26.06
2022-08-26T06:56:31.249Z,26.10
2022-08-26T07:01:43.005Z,26.12
2022-08-26T07:06:52.951Z,26.14
2022-08-26T07:12:00.414Z,26.17
2022-08-26T07:17:11.013Z,26.21
2022-08-26T07:22:20.965Z,26.23
2022-08-26T07:27:27.540Z,26.25
2022-08-26T07:32:35.560Z,26.27
2022-08-26T07:37:42.362Z,26.29
2022-08-26T07:42:49.498Z,26.31
2022-08-26T07:47:56.931Z,26.34
2022-08-26T07:53:04.798Z,26.36
2022-08-26T07:58:11.520Z,26.39
2022-08-26T08:03:18.952Z,26.41
2022-08-26T08:08:27.572Z,26.43
2022-08-26T08:13:35.930Z,26.45
2022-08-26T08:18:42.749Z,26.45
2022-08-26T08:23:49.235Z,26.47
2022-08-26T08:28:57.357Z,26.49
2022-08-26T08:34:04.173Z,26.50
2022-08-26T08:39:11.120Z,26.50
2022-08-26T08:44:20.420Z,26.51
2022-08-26T08:49:28.069Z,26.49
2022-08-26T08:54:36.211Z,26.47
2022-08-26T08:59:51.450Z,26.47
2022-08-26T09:05:16.130Z,26.48
2022-08-26T09:10:28.933Z,26.50
2022-08-26T09:15:38.163Z,26.54
2022-08-26T09:20:51.520Z,26.56
2022-08-26T09:25:59.513Z,26.59
2022-08-26T09:31:12.530Z,26.58
2022-08-26T09:36:24.771Z,26.61
2022-08-26T09:41:32.891Z,26.61
2022-08-26T09:52:04.629Z,26.62
2022-08-26T09:57:18.079Z,26.62
2022-08-26T10:02:36.723Z,26.62
2022-08-26T10:07:46.312Z,26.65
2022-08-26T10:13:05.246Z,26.65
2022-08-26T10:18:15.328Z,26.63
2022-08-26T10:23:25.327Z,26.60
2022-08-26T10:28:37.290Z,26.62
2022-08-26T10:33:44.750Z,26.62
2022-08-26T10:38:51.530Z,26.61
2022-08-26T10:44:00.869Z,26.63
2022-08-26T10:49:08.740Z,26.60
2022-08-26T10:54:19.170Z,26.58
2022-08-26T10:59:30.242Z,26.56
2022-08-26T11:04:47.534Z,26.55
2022-08-26T11:09:55.150Z,26.57
2022-08-26T11:15:02.111Z,26.55
2022-08-26T11:20:12.397Z,26.54
2022-08-26T11:25:20.920Z,26.51
2022-08-26T11:30:44.420Z,26.51
2022-08-26T11:35:52.405Z,26.49
2022-08-26T11:41:11.893Z,26.51
2022-08-26T11:46:26.370Z,26.49
2022-08-26T11:51:34.991Z,26.51
2022-08-26T11:56:46.862Z,26.48
2022-08-26T12:01:55.604Z,26.47
2022-08-26T12:07:03.560Z,26.50
2022-08-26T12:12:15.254Z,26.46
2022-08-26T12:17:28.394Z,26.47
2022-08-26T12:22:39.270Z,26.47
2022-08-26T12:27:53.640Z,26.46
2022-08-26T12:33:22.445Z,26.47
2022-08-26T12:38:30.797Z,26.47
2022-08-26T12:43:41.803Z,26.49
2022-08-26T12:48:50.109Z,26.44
2022-08-26T12:53:57.750Z,26.44
2022-08-26T12:59:11.178Z,26.45
2022-08-26T13:04:36.324Z,26.46
2022-08-26T13:09:43.172Z,26.43
2022-08-26T13:14:51.269Z,26.44
2022-08-26T13:20:02.848Z,26.45
2022-08-26T13:25:11.546Z,26.43
2022-08-26T13:30:18.524Z,26.43
2022-08-26T13:35:25.310Z,26.43
2022-08-26T13:40:34.627Z,26.42
2022-08-26T13:45:41.720Z,26.43
2022-08-26T13:50:49.085Z,26.43
2022-08-26T13:55:55.650Z,26.45
2022-08-26T14:01:02.434Z,26.42
2022-08-26T14:06:09.120Z,26.45
2022-08-26T14:11:16.044Z,26.43
2022-08-26T14:16:25.020Z,26.43
2022-08-26T14:21:32.738Z,26.44
2022-08-26T14:26:39.311Z,26.44
2022-08-26T14:31:46.332Z,26.45
2022-08-26T14:36:53.040Z,26.45
2022-08-26T14:41:59.713Z,26.45
2022-08-26T14:47:08.033Z,26.46
2022-08-26T14:52:14.920Z,26.47
2022-08-26T14:57:21.924Z,26.47
2022-08-26T15:02:33.513Z,26.46
2022-08-26T15:07:41.271Z,26.46
2022-08-26T15:12:48.497Z,26.45
2022-08-26T15:17:55.206Z,26.47
2022-08-26T15:23:06.232Z,26.44
2022-08-26T15:28:13.580Z,26.46
2022-08-26T15:33:20.422Z,26.45
2022-08-26T15:38:27.153Z,26.44
2022-08-26T15:43:34.047Z,26.43
2022-08-26T15:48:41.132Z,26.44
2022-08-26T15:53:47.910Z,26.44
2022-08-26T15:58:56.315Z,26.44
2022-08-26T16:04:03.490Z,26.45
2022-08-26T16:09:10.281Z,26.46
2022-08-26T16:14:21.683Z,26.46
2022-08-26T16:19:28.329Z,26.48
2022-08-26T16:24:35.128Z,26.45
2022-08-26T16:29:41.950Z,26.46
2022-08-26T16:34:56.943Z,26.46
2022-08-26T16:40:04.018Z,26.47
2022-08-26T16:45:11.590Z,26.48
2022-08-26T16:50:18.429Z,26.46
2022-08-26T16:55:25.470Z,26.46
2022-08-26T17:00:33.609Z,26.47
2022-08-26T17:05:40.654Z,26.48
2022-08-26T17:10:47.480Z,26.49
2022-08-26T17:15:58.376Z,26.48
2022-08-26T17:21:08.010Z,26.48
2022-08-26T17:26:14.680Z,26.47
2022-08-26T17:31:21.665Z,26.45
2022-08-26T17:36:28.539Z,26.45
2022-08-26T17:41:35.451Z,26.46
2022-08-26T17:46:42.467Z,26.46
2022-08-26T17:51:49.222Z,26.47
2022-08-26T17:56:56.051Z,26.46
2022-08-26T18:02:04.414Z,26.47
2022-08-26T18:07:11.290Z,26.48
2022-08-26T18:12:18.170Z,26.48
2022-08-26T18:17:24.969Z,26.47
2022-08-26T18:22:31.731Z,26.47
2022-08-26T18:27:39.040Z,26.45
2022-08-26T18:32:45.970Z,26.48
2022-08-26T18:37:52.952Z,26.47
2022-08-26T18:42:59.451Z,26.48
2022-08-26T18:48:07.006Z,26.47
2022-08-26T18:53:13.800Z,26.47
2022-08-26T18:58:20.641Z,26.47
2022-08-26T19:03:29.030Z,26.47
2022-08-26T19:08:35.740Z,26.47
2022-08-26T19:13:42.471Z,26.47
2022-08-26T19:18:50.710Z,26.47
2022-08-26T19:23:59.480Z,26.48
2022-08-26T19:29:07.115Z,26.48
2022-08-26T19:34:14.401Z,26.50
2022-08-26T19:39:24.470Z,26.47
2022-08-26T19:44:47.521Z,26.49
2022-08-26T19:49:55.921Z,26.49
2022-08-26T19:55:03.011Z,26.50
2022-08-26T20:00:11.348Z,26.46
2022-08-26T20:05:20.409Z,26.47
2022-08-26T20:10:27.531Z,26.46
2022-08-26T20:15:34.298Z,26.47
2022-08-26T20:21:06.412Z,26.48
2022-08-26T20:26:13.691Z,26.49
2022-08-26T20:31:20.460Z,26.47
2022-08-26T20:36:28.594Z,26.46
2022-08-26T20:41:35.971Z,26.48
2022-08-26T20:46:42.930Z,26.47
2022-08-26T20:51:52.554Z,26.49
2022-08-26T20:56:59.910Z,26.48
2022-08-26T21:02:06.795Z,26.46
2022-08-26T21:07:13.540Z,26.47
2022-08-26T21:12:20.202Z,26.47
2022-08-26T21:17:27.365Z,26.47
2022-08-26T21:22:34.524Z,26.47
2022-08-26T21:27:41.578Z,26.46
2022-08-26T21:32:48.098Z,26.48
2022-08-26T21:37:54.991Z,26.47
2022-08-26T21:43:01.629Z,26.48
2022-08-26T21:48:08.263Z,26.46
2022-08-26T21:53:15.870Z,26.47
2022-08-26T21:58:22.547Z,26.47
2022-08-26T22:03:29.944Z,26.46
2022-08-26T22:08:42.210Z,26.46
2022-08-26T22:13:49.270Z,26.48
2022-08-26T22:18:56.133Z,26.46
2022-08-26T22:24:02.650Z,26.46
2022-08-26T22:29:09.152Z,26.46
2022-08-26T22:34:17.590Z,26.47
2022-08-26T22:39:25.325Z,26.47
2022-08-26T22:44:32.705Z,26.47
2022-08-26T22:49:39.371Z,26.47
2022-08-26T22:54:45.990Z,26.47
2022-08-26T22:59:52.793Z,26.46
2022-08-26T23:04:59.371Z,26.45
2022-08-26T23:10:06.869Z,26.44
2022-08-26T23:15:14.158Z,26.45
2022-08-26T23:20:22.801Z,26.44
2022-08-26T23:25:30.264Z,26.44
2022-08-26T23:30:37.540Z,26.44
2022-08-26T23:35:44.349Z,26.44
2022-08-26T23:40:51.335Z,26.45
2022-08-26T23:45:58.344Z,26.42
2022-08-26T23:51:22.682Z,26.43
2022-08-26T23:56:29.600Z,26.44
